createdAt,value
2018-07-19T00:00:17.513Z,66.20
2018-07-19T00:01:17.513Z,65.91
2018-07-19T00:02:17.519Z,65.81
2018-07-19T00:03:17.521Z,65.62
2018-07-19T00:04:17.525Z,65.81
2018-07-19T00:05:17.559Z,66.20
2018-07-19T00:06:17.530Z,66.00
2018-07-19T00:07:17.533Z,66.20
2018-07-19T00:08:17.537Z,65.81
2018-07-19T00:09:17.541Z,65.72
2018-07-19T00:10:17.543Z,65.23
2018-07-19T00:11:17.546Z,66.20
2018-07-19T00:12:17.549Z,65.72
2018-07-19T00:13:17.552Z,64.95
2018-07-19T00:14:17.555Z,65.05
2018-07-19T00:15:17.557Z,64.76
2018-07-19T00:16:17.563Z,64.56
2018-07-19T00:17:17.563Z,64.76
2018-07-19T00:18:17.567Z,64.95
2018-07-19T00:19:17.570Z,64.66
2018-07-19T00:20:17.575Z,64.47
2018-07-19T00:21:17.578Z,64.72
2018-07-19T00:22:17.578Z,64.95
2018-07-19T00:23:17.583Z,65.05
2018-07-19T00:24:17.586Z,65.05
2018-07-19T00:25:17.590Z,64.37
2018-07-19T00:26:17.591Z,63.89
2018-07-19T00:27:17.595Z,64.95
2018-07-19T00:28:17.598Z,64.37
2018-07-19T00:29:17.601Z,64.47
2018-07-19T00:30:17.603Z,64.85
2018-07-19T00:31:17.607Z,64.92
2018-07-19T00:32:17.611Z,64.95
2018-07-19T00:33:17.613Z,64.92
2018-07-19T00:34:17.617Z,64.92
2018-07-19T00:35:17.620Z,64.37
2018-07-19T00:36:17.620Z,64.43
2018-07-19T00:37:17.627Z,64.63
2018-07-19T00:38:17.627Z,64.34
2018-07-19T00:39:17.630Z,64.53
2018-07-19T00:40:17.634Z,64.34
2018-07-19T00:41:17.639Z,65.01
2018-07-19T00:42:17.638Z,64.82
2018-07-19T00:43:17.641Z,65.40
2018-07-19T00:44:17.644Z,64.92
2018-07-19T00:45:17.648Z,65.11
2018-07-19T00:46:17.651Z,66.16
2018-07-19T00:47:17.654Z,66.16
2018-07-19T00:48:17.656Z,67.03
2018-07-19T00:49:17.660Z,67.09
2018-07-19T00:50:17.661Z,67.76
2018-07-19T00:51:17.665Z,67.09
2018-07-19T00:52:17.667Z,67.19
2018-07-19T00:53:17.673Z,67.76
2018-07-19T00:54:17.672Z,68.05
2018-07-19T00:55:17.677Z,68.53
2018-07-19T00:56:17.678Z,68.82
2018-07-19T00:57:17.681Z,68.63
2018-07-19T00:58:17.685Z,68.82
2018-07-19T00:59:17.687Z,68.73
2018-07-19T01:00:17.690Z,68.82
2018-07-19T01:01:17.691Z,68.34
2018-07-19T01:02:17.695Z,68.91
2018-07-19T01:03:17.697Z,69.01
2018-07-19T01:04:17.701Z,69.59
2018-07-19T01:05:17.704Z,69.59
2018-07-19T01:06:17.706Z,69.68
2018-07-19T01:07:17.707Z,70.26
2018-07-19T01:08:17.713Z,70.26
2018-07-19T01:09:17.715Z,70.61
2018-07-19T01:10:17.718Z,70.80
2018-07-19T01:11:17.721Z,70.23
2018-07-19T01:12:17.721Z,70.99
2018-07-19T01:13:17.725Z,70.99
2018-07-19T01:14:17.727Z,71.19
2018-07-19T01:15:17.731Z,71.66
2018-07-19T01:16:17.732Z,71.76
2018-07-19T01:17:17.735Z,71.37
2018-07-19T01:18:17.738Z,71.86
2018-07-19T01:19:17.739Z,71.95
2018-07-19T01:20:17.744Z,71.95
2018-07-19T01:21:17.746Z,72.14
2018-07-19T01:22:17.748Z,71.82
2018-07-19T01:23:17.752Z,72.11
2018-07-19T01:24:17.754Z,72.01
2018-07-19T01:25:17.756Z,72.20
2018-07-19T01:26:17.758Z,72.49
2018-07-19T01:27:17.761Z,72.78
2018-07-19T01:28:17.764Z,72.78
2018-07-19T01:29:17.768Z,74.41
2018-07-19T01:30:17.767Z,74.60
2018-07-19T01:31:17.770Z,74.41
2018-07-19T01:32:17.774Z,74.60
2018-07-19T01:33:17.776Z,74.69
2018-07-19T01:34:17.778Z,75.08
2018-07-19T01:35:17.782Z,74.60
2018-07-19T01:36:17.784Z,74.51
2018-07-19T01:37:17.788Z,74.47
2018-07-19T01:38:17.787Z,75.08
2018-07-19T01:39:17.791Z,75.23
2018-07-19T01:40:17.793Z,74.57
2018-07-19T01:41:17.796Z,75.04
2018-07-19T01:42:17.805Z,74.85
2018-07-19T01:43:17.801Z,75.62
2018-07-19T01:44:17.803Z,75.90
2018-07-19T01:45:17.806Z,75.90
2018-07-19T01:46:17.808Z,75.90
2018-07-19T01:47:17.810Z,75.62
2018-07-19T01:48:17.812Z,75.90
2018-07-19T01:49:17.815Z,76.29
2018-07-19T01:50:17.816Z,76.48
2018-07-19T01:51:17.818Z,76.48
2018-07-19T01:52:17.822Z,76.48
2018-07-19T01:53:17.826Z,76.29
2018-07-19T01:54:17.826Z,76.10
2018-07-19T01:55:17.832Z,76.29
2018-07-19T01:56:17.830Z,76.48
2018-07-19T01:57:17.834Z,76.19
2018-07-19T01:58:17.834Z,76.19
2018-07-19T01:59:17.837Z,75.81
2018-07-19T02:00:17.842Z,76.19
2018-07-19T02:01:17.841Z,76.10
2018-07-19T02:02:17.842Z,76.00
2018-07-19T02:03:17.846Z,75.90
2018-07-19T02:04:17.848Z,75.62
2018-07-19T02:05:17.851Z,75.52
2018-07-19T02:06:17.852Z,75.62
2018-07-19T02:07:17.858Z,75.90
2018-07-19T02:08:17.857Z,76.10
2018-07-19T02:09:17.859Z,76.00
2018-07-19T02:10:17.860Z,76.00
2018-07-19T02:11:17.863Z,75.81
2018-07-19T02:12:17.865Z,76.29
2018-07-19T02:13:17.868Z,76.48
2018-07-19T02:14:17.868Z,75.90
2018-07-19T02:15:17.870Z,76.10
2018-07-19T02:16:17.873Z,76.29
2018-07-19T02:17:17.876Z,76.10
2018-07-19T02:18:17.879Z,76.00
2018-07-19T02:19:17.879Z,76.00
2018-07-19T02:20:17.886Z,76.77
2018-07-19T02:21:17.885Z,76.29
2018-07-19T02:22:17.885Z,75.90
2018-07-19T02:23:17.888Z,75.90
2018-07-19T02:24:17.891Z,75.75
2018-07-19T02:25:17.895Z,75.81
2018-07-19T02:26:17.893Z,76.10
2018-07-19T02:27:17.895Z,76.10
2018-07-19T02:28:17.899Z,76.48
2018-07-19T02:29:17.899Z,76.29
2018-07-19T02:30:17.901Z,76.39
2018-07-19T02:31:17.904Z,76.29
2018-07-19T02:32:17.905Z,76.39
2018-07-19T02:33:17.908Z,76.10
2018-07-19T02:34:17.909Z,76.39
2018-07-19T02:35:17.910Z,76.77
2018-07-19T02:36:17.914Z,76.48
2018-07-19T02:37:17.915Z,76.10
2018-07-19T02:38:17.917Z,75.90
2018-07-19T02:39:17.921Z,75.81
2018-07-19T02:40:17.921Z,76.10
2018-07-19T02:41:17.922Z,75.95
2018-07-19T02:42:17.924Z,76.29
2018-07-19T02:43:17.925Z,76.10
2018-07-19T02:44:17.929Z,75.85
2018-07-19T02:45:17.930Z,75.46
2018-07-19T02:46:17.932Z,74.79
2018-07-19T02:47:17.932Z,74.89
2018-07-19T02:48:17.936Z,74.79
2018-07-19T02:49:17.939Z,74.89
2018-07-19T02:50:17.938Z,74.98
2018-07-19T02:51:17.941Z,75.27
2018-07-19T02:52:17.944Z,74.60
2018-07-19T02:53:17.945Z,74.69
2018-07-19T02:54:17.946Z,74.60
2018-07-19T02:55:17.946Z,74.60
2018-07-19T02:56:17.950Z,74.60
2018-07-19T02:57:17.952Z,74.69
2018-07-19T02:58:17.954Z,74.60
2018-07-19T02:59:17.954Z,74.89
2018-07-19T03:00:17.958Z,74.76
2018-07-19T03:01:17.959Z,74.95
2018-07-19T03:02:17.962Z,74.60
2018-07-19T03:03:17.965Z,74.76
2018-07-19T03:04:17.965Z,74.79
2018-07-19T03:05:17.966Z,75.08
2018-07-19T03:06:17.967Z,74.85
2018-07-19T03:07:17.968Z,74.85
2018-07-19T03:08:17.972Z,75.62
2018-07-19T03:09:17.972Z,75.33
2018-07-19T03:10:17.973Z,76.00
2018-07-19T03:11:17.977Z,76.29
2018-07-19T03:12:17.978Z,75.81
2018-07-19T03:13:17.979Z,76.19
2018-07-19T03:14:17.981Z,75.90
2018-07-19T03:15:17.982Z,75.90
2018-07-19T03:16:17.984Z,76.29
2018-07-19T03:17:17.989Z,75.90
2018-07-19T03:18:17.989Z,76.00
2018-07-19T03:19:17.993Z,76.10
2018-07-19T03:20:17.991Z,76.10
2018-07-19T03:21:17.993Z,76.57
2018-07-19T03:22:18.000Z,76.39
2018-07-19T03:23:17.996Z,76.57
2018-07-19T03:24:17.998Z,76.39
2018-07-19T03:25:18.001Z,76.67
2018-07-19T03:26:18.003Z,76.10
2018-07-19T03:27:18.003Z,76.86
2018-07-19T03:28:18.003Z,76.86
2018-07-19T03:29:18.011Z,76.67
2018-07-19T03:30:18.008Z,76.48
2018-07-19T03:31:18.010Z,76.48
2018-07-19T03:32:18.011Z,76.67
2018-07-19T03:33:18.013Z,76.67
2018-07-19T03:34:18.014Z,76.86
2018-07-19T03:35:18.017Z,76.86
2018-07-19T03:36:18.018Z,76.67
2018-07-19T03:37:18.020Z,76.39
2018-07-19T03:38:18.021Z,76.57
2018-07-19T03:39:18.022Z,76.10
2018-07-19T03:40:18.026Z,76.29
2018-07-19T03:41:18.029Z,75.81
2018-07-19T03:42:18.027Z,75.65
2018-07-19T03:43:18.029Z,75.37
2018-07-19T03:44:18.029Z,75.46
2018-07-19T03:45:18.034Z,74.89
2018-07-19T03:46:18.034Z,74.89
2018-07-19T03:47:18.035Z,74.79
2018-07-19T03:48:18.037Z,74.89
2018-07-19T03:49:18.040Z,75.46
2018-07-19T03:50:18.039Z,75.37
2018-07-19T03:51:18.042Z,76.19
2018-07-19T03:52:18.043Z,76.86
2018-07-19T03:53:18.046Z,76.57
2018-07-19T03:54:18.046Z,76.29
2018-07-19T03:55:18.048Z,76.48
2018-07-19T03:56:18.050Z,76.29
2018-07-19T03:57:18.052Z,76.57
2018-07-19T03:58:18.052Z,76.19
2018-07-19T03:59:18.054Z,76.19
2018-07-19T04:00:18.056Z,76.39
2018-07-19T04:01:18.057Z,77.15
2018-07-19T04:02:18.057Z,77.73
2018-07-19T04:03:18.061Z,77.25
2018-07-19T04:04:18.061Z,78.07
2018-07-19T04:05:18.065Z,77.97
2018-07-19T04:06:18.064Z,78.84
2018-07-19T04:07:18.068Z,78.74
2018-07-19T04:08:18.068Z,78.93
2018-07-19T04:09:18.069Z,78.74
2018-07-19T04:10:18.072Z,79.32
2018-07-19T04:11:18.072Z,78.93
2018-07-19T04:12:18.075Z,79.51
2018-07-19T04:13:18.076Z,79.41
2018-07-19T04:14:18.077Z,80.08
2018-07-19T04:15:18.079Z,80.08
2018-07-19T04:16:18.081Z,79.89
2018-07-19T04:17:18.082Z,80.18
2018-07-19T04:18:18.084Z,79.99
2018-07-19T04:19:18.085Z,80.27
2018-07-19T04:20:18.088Z,79.32
2018-07-19T04:21:18.089Z,80.27
2018-07-19T04:22:18.090Z,80.18
2018-07-19T04:23:18.092Z,79.51
2018-07-19T04:24:18.094Z,80.18
2018-07-19T04:25:18.096Z,80.27
2018-07-19T04:26:18.095Z,80.56
2018-07-19T04:27:18.098Z,79.99
2018-07-19T04:28:18.098Z,79.51
2018-07-19T04:29:18.100Z,79.60
2018-07-19T04:30:18.102Z,79.51
2018-07-19T04:31:18.103Z,79.51
2018-07-19T04:32:18.144Z,79.32
2018-07-19T04:33:18.107Z,79.32
2018-07-19T04:34:18.107Z,77.78
2018-07-19T04:35:18.110Z,78.45
2018-07-19T04:36:18.112Z,78.11
2018-07-19T04:37:18.117Z,78.30
2018-07-19T04:38:18.165Z,78.02
2018-07-19T04:39:18.114Z,77.92
2018-07-19T04:40:18.117Z,78.11
2018-07-19T04:41:18.119Z,78.20
2018-07-19T04:42:18.120Z,78.11
2018-07-19T04:43:18.126Z,78.02
2018-07-19T04:44:18.124Z,78.20
2018-07-19T04:45:18.124Z,77.82
2018-07-19T04:46:18.126Z,76.96
2018-07-19T04:47:18.129Z,76.90
2018-07-19T04:48:18.142Z,76.90
2018-07-19T04:49:18.133Z,77.38
2018-07-19T04:50:18.133Z,76.23
2018-07-19T04:51:18.135Z,77.00
2018-07-19T04:52:18.141Z,76.90
2018-07-19T04:53:18.139Z,75.56
2018-07-19T04:54:18.140Z,75.79
2018-07-19T04:55:18.142Z,74.83
2018-07-19T04:56:18.144Z,75.31
2018-07-19T04:57:18.147Z,74.44
2018-07-19T04:58:18.147Z,73.30
2018-07-19T04:59:18.153Z,73.72
2018-07-19T05:00:18.153Z,74.58
2018-07-19T05:01:18.155Z,73.91
2018-07-19T05:02:18.156Z,72.75
2018-07-19T05:03:18.157Z,73.04
2018-07-19T05:04:18.160Z,72.50
2018-07-19T05:05:18.162Z,72.02
2018-07-19T05:06:18.164Z,72.31
2018-07-19T05:07:18.166Z,71.93
2018-07-19T05:08:18.169Z,71.25
2018-07-19T05:09:18.171Z,71.10
2018-07-19T05:10:18.173Z,69.27
2018-07-19T05:11:18.175Z,69.18
2018-07-19T05:12:18.178Z,68.51
2018-07-19T05:13:18.182Z,68.70
2018-07-19T05:14:18.183Z,67.64
2018-07-19T05:15:18.185Z,67.45
2018-07-19T05:16:18.190Z,67.74
2018-07-19T05:17:18.191Z,68.06
2018-07-19T05:18:18.194Z,67.68
2018-07-19T05:19:18.197Z,67.19
2018-07-19T05:20:18.199Z,67.77
2018-07-19T05:21:18.203Z,67.19
2018-07-19T05:22:18.203Z,66.14
2018-07-19T05:23:18.227Z,65.97
2018-07-19T05:24:18.211Z,64.92
2018-07-19T05:25:18.214Z,63.41
2018-07-19T05:26:18.217Z,63.41
2018-07-19T05:27:18.222Z,62.64
2018-07-19T05:28:18.226Z,63.28
2018-07-19T05:29:18.229Z,63.18
2018-07-19T05:30:18.231Z,64.34
2018-07-19T05:31:18.234Z,64.92
2018-07-19T05:32:18.238Z,63.57
2018-07-19T05:33:18.241Z,63.38
2018-07-19T05:34:18.244Z,62.83
2018-07-19T05:35:18.248Z,62.54
2018-07-19T05:36:18.253Z,62.09
2018-07-19T05:37:18.255Z,62.06
2018-07-19T05:38:18.258Z,62.45
2018-07-19T05:39:18.262Z,62.35
2018-07-19T05:40:18.266Z,62.26
2018-07-19T05:41:18.271Z,62.74
2018-07-19T05:42:18.301Z,62.54
2018-07-19T05:43:18.278Z,63.12
2018-07-19T05:44:18.281Z,63.51
2018-07-19T05:45:18.285Z,63.22
2018-07-19T05:46:18.289Z,63.18
2018-07-19T05:47:18.294Z,63.67
2018-07-19T05:48:18.298Z,63.79
2018-07-19T05:49:18.302Z,63.70
2018-07-19T05:50:18.304Z,63.70
2018-07-19T05:51:18.314Z,63.41
2018-07-19T05:52:18.312Z,63.31
2018-07-19T05:53:18.317Z,64.18
2018-07-19T05:54:18.322Z,64.28
2018-07-19T05:55:18.326Z,64.25
2018-07-19T05:56:18.330Z,64.28
2018-07-19T05:57:18.335Z,64.66
2018-07-19T05:58:18.347Z,64.47
2018-07-19T05:59:18.342Z,63.89
2018-07-19T06:00:18.346Z,63.41
2018-07-19T06:01:18.352Z,63.31
2018-07-19T06:02:18.355Z,64.28
2018-07-19T06:03:18.358Z,64.08
2018-07-19T06:04:18.363Z,63.41
2018-07-19T06:05:18.368Z,63.12
2018-07-19T06:06:18.373Z,63.31
2018-07-19T06:07:18.376Z,62.96
2018-07-19T06:08:18.381Z,62.09
2018-07-19T06:09:18.384Z,61.71
2018-07-19T06:10:18.389Z,61.80
2018-07-19T06:11:18.393Z,61.25
2018-07-19T06:12:18.401Z,60.97
2018-07-19T06:13:18.403Z,60.97
2018-07-19T06:14:18.406Z,61.00
2018-07-19T06:15:18.412Z,60.52
2018-07-19T06:16:18.416Z,60.80
2018-07-19T06:17:18.421Z,60.13
2018-07-19T06:18:18.425Z,60.03
2018-07-19T06:19:18.430Z,59.45
2018-07-19T06:20:18.435Z,59.55
2018-07-19T06:21:18.440Z,60.32
2018-07-19T06:22:18.445Z,59.45
2018-07-19T06:23:18.451Z,59.45
2018-07-19T06:24:18.456Z,58.42
2018-07-19T06:25:18.460Z,58.23
2018-07-19T06:26:18.465Z,58.14
2018-07-19T06:27:18.471Z,57.82
2018-07-19T06:28:18.496Z,58.40
2018-07-19T06:29:18.483Z,57.85
2018-07-19T06:30:18.486Z,57.37
2018-07-19T06:31:18.491Z,57.65
2018-07-19T06:32:18.499Z,57.65
2018-07-19T06:33:18.503Z,58.14
2018-07-19T06:34:18.507Z,57.17
2018-07-19T06:35:18.512Z,56.43
2018-07-19T06:36:18.520Z,56.72
2018-07-19T06:37:18.524Z,56.14
2018-07-19T06:38:18.531Z,55.46
2018-07-19T06:39:18.536Z,55.27
2018-07-19T06:40:18.541Z,55.27
2018-07-19T06:41:18.570Z,55.59
2018-07-19T06:42:18.552Z,54.79
2018-07-19T06:43:18.558Z,54.40
2018-07-19T06:44:18.564Z,54.43
2018-07-19T06:45:18.570Z,54.14
2018-07-19T06:46:18.576Z,53.56
2018-07-19T06:47:18.580Z,53.56
2018-07-19T06:48:18.586Z,53.47
2018-07-19T06:49:18.602Z,54.43
2018-07-19T06:50:18.598Z,54.17
2018-07-19T06:51:18.605Z,53.20
2018-07-19T06:52:18.612Z,53.49
2018-07-19T06:53:18.619Z,53.27
2018-07-19T06:54:18.625Z,54.46
2018-07-19T06:55:18.629Z,53.37
2018-07-19T06:56:18.636Z,53.30
2018-07-19T06:57:18.644Z,53.59
2018-07-19T06:58:18.648Z,53.20
2018-07-19T06:59:18.659Z,53.39
2018-07-19T07:00:18.663Z,53.47
2018-07-19T07:01:18.668Z,53.11
2018-07-19T07:02:18.673Z,52.91
2018-07-19T07:03:18.681Z,52.62
2018-07-19T07:04:18.688Z,52.33
2018-07-19T07:05:18.695Z,52.65
2018-07-19T07:06:18.701Z,52.43
2018-07-19T07:07:18.707Z,52.84
2018-07-19T07:08:18.715Z,52.45
2018-07-19T07:09:18.721Z,51.39
2018-07-19T07:10:18.726Z,51.17
2018-07-19T07:11:18.733Z,51.65
2018-07-19T07:12:18.741Z,52.04
2018-07-19T07:13:18.748Z,51.75
2018-07-19T07:14:18.753Z,51.25
2018-07-19T07:15:18.760Z,52.01
2018-07-19T07:16:18.767Z,52.79
2018-07-19T07:17:18.775Z,53.01
2018-07-19T07:18:18.781Z,53.11
2018-07-19T07:19:18.788Z,53.20
2018-07-19T07:20:18.794Z,53.11
2018-07-19T07:21:18.821Z,52.81
2018-07-19T07:22:18.807Z,52.53
2018-07-19T07:23:18.815Z,51.65
2018-07-19T07:24:18.820Z,50.89
2018-07-19T07:25:18.829Z,50.91
2018-07-19T07:26:18.837Z,50.81
2018-07-19T07:27:18.844Z,50.04
2018-07-19T07:28:18.881Z,49.82
2018-07-19T07:29:18.856Z,50.13
2018-07-19T07:30:18.862Z,49.85
2018-07-19T07:31:18.869Z,49.37
2018-07-19T07:32:18.876Z,48.88
2018-07-19T07:33:18.885Z,48.88
2018-07-19T07:34:18.891Z,48.97
2018-07-19T07:35:18.896Z,48.79
2018-07-19T07:36:18.905Z,48.71
2018-07-19T07:37:18.913Z,49.68
2018-07-19T07:38:18.918Z,49.68
2018-07-19T07:39:18.925Z,49.19
2018-07-19T07:40:18.933Z,48.93
2018-07-19T07:41:18.941Z,48.57
2018-07-19T07:42:18.950Z,47.31
2018-07-19T07:43:18.954Z,46.42
2018-07-19T07:44:18.976Z,46.22
2018-07-19T07:45:18.972Z,46.32
2018-07-19T07:46:18.977Z,46.70
2018-07-19T07:47:18.987Z,46.80
2018-07-19T07:48:18.993Z,46.63
2018-07-19T07:49:19.001Z,45.49
2018-07-19T07:50:19.010Z,45.76
2018-07-19T07:51:19.018Z,45.37
2018-07-19T07:52:19.026Z,44.62
2018-07-19T07:53:19.036Z,44.53
2018-07-19T07:54:19.063Z,44.53
2018-07-19T07:55:19.050Z,44.54
2018-07-19T07:56:19.059Z,43.77
2018-07-19T07:57:19.068Z,43.68
2018-07-19T07:58:19.076Z,44.16
2018-07-19T07:59:19.089Z,44.13
2018-07-19T08:00:19.094Z,43.95
2018-07-19T08:01:19.103Z,44.35
2018-07-19T08:02:19.111Z,44.26
2018-07-19T08:03:19.120Z,44.43
2018-07-19T08:04:19.130Z,44.72
2018-07-19T08:05:19.139Z,45.10
2018-07-19T08:06:19.147Z,44.33
2018-07-19T08:07:19.156Z,44.13
2018-07-19T08:08:19.165Z,44.35
2018-07-19T08:09:19.175Z,43.64
2018-07-19T08:10:19.184Z,42.09
2018-07-19T08:11:19.193Z,42.26
2018-07-19T08:12:19.203Z,42.46
2018-07-19T08:13:19.213Z,43.60
2018-07-19T08:14:19.220Z,43.99
2018-07-19T08:15:19.232Z,43.50
2018-07-19T08:16:19.242Z,43.12
2018-07-19T08:17:19.250Z,43.60
2018-07-19T08:18:19.259Z,43.50
2018-07-19T08:19:19.269Z,43.58
2018-07-19T08:20:19.293Z,43.48
2018-07-19T08:21:19.291Z,43.70
2018-07-19T08:22:19.299Z,44.37
2018-07-19T08:23:19.308Z,43.50
2018-07-19T08:24:19.317Z,43.50
2018-07-19T08:25:19.329Z,43.54
2018-07-19T08:26:19.336Z,42.21
2018-07-19T08:27:19.346Z,42.03
2018-07-19T08:28:19.356Z,41.47
2018-07-19T08:29:19.369Z,41.26
2018-07-19T08:30:19.376Z,41.26
2018-07-19T08:31:19.387Z,41.14
2018-07-19T08:32:19.405Z,41.63
2018-07-19T08:33:19.407Z,41.82
2018-07-19T08:34:19.417Z,41.53
2018-07-19T08:35:19.428Z,42.38
2018-07-19T08:36:19.446Z,41.14
2018-07-19T08:37:19.448Z,41.51
2018-07-19T08:38:19.458Z,41.14
2018-07-19T08:39:19.470Z,40.72
2018-07-19T08:40:19.482Z,40.13
2018-07-19T08:41:19.491Z,39.86
2018-07-19T08:42:19.502Z,39.84
2018-07-19T08:43:19.514Z,41.18
2018-07-19T08:44:19.523Z,41.84
2018-07-19T08:45:19.536Z,41.55
2018-07-19T08:46:19.547Z,40.97
2018-07-19T08:47:19.557Z,40.87
2018-07-19T08:48:19.568Z,40.58
2018-07-19T08:49:19.580Z,40.66
2018-07-19T08:50:19.590Z,41.26
2018-07-19T08:51:19.603Z,40.33
2018-07-19T08:52:19.613Z,40.03
2018-07-19T08:53:19.625Z,40.11
2018-07-19T08:54:19.637Z,40.91
2018-07-19T08:55:19.648Z,39.08
2018-07-19T08:56:19.660Z,38.79
2018-07-19T08:57:19.672Z,38.46
2018-07-19T08:58:19.684Z,36.55
2018-07-19T08:59:19.696Z,35.90
2018-07-19T09:00:19.714Z,35.51
2018-07-19T09:01:19.722Z,35.67
2018-07-19T09:02:19.777Z,36.72
2018-07-19T09:03:19.748Z,37.85
2018-07-19T09:04:19.761Z,36.63
2018-07-19T09:05:19.776Z,37.18
2018-07-19T09:06:19.786Z,36.92
2018-07-19T09:07:19.802Z,36.24
2018-07-19T09:08:19.818Z,36.59
2018-07-19T09:09:19.827Z,37.24
2018-07-19T09:10:19.841Z,38.01
2018-07-19T09:11:19.859Z,37.45
2018-07-19T09:12:19.905Z,35.75
2018-07-19T09:13:19.883Z,35.39
2018-07-19T09:14:19.897Z,35.31
2018-07-19T09:15:19.911Z,35.30
2018-07-19T09:16:19.924Z,35.28
2018-07-19T09:17:19.938Z,35.47
2018-07-19T09:18:19.954Z,36.41
2018-07-19T09:19:20.014Z,36.98
2018-07-19T09:20:19.980Z,36.20
2018-07-19T09:21:19.994Z,36.32
2018-07-19T09:22:20.010Z,36.04
2018-07-19T09:23:20.023Z,36.40
2018-07-19T09:24:20.035Z,36.77
2018-07-19T09:25:20.051Z,37.16
2018-07-19T09:26:20.063Z,38.57
2018-07-19T09:27:20.077Z,38.77
2018-07-19T09:28:20.090Z,38.89
2018-07-19T09:29:20.105Z,38.71
2018-07-19T09:30:20.117Z,38.98
2018-07-19T09:31:20.132Z,39.47
2018-07-19T09:32:20.144Z,39.29
2018-07-19T09:33:20.158Z,39.49
2018-07-19T09:34:20.170Z,39.20
2018-07-19T09:35:20.185Z,39.45
2018-07-19T09:36:20.199Z,40.91
2018-07-19T09:37:20.213Z,40.52
2018-07-19T09:38:20.270Z,40.15
2018-07-19T09:39:20.239Z,39.22
2018-07-19T09:40:20.252Z,38.26
2018-07-19T09:41:20.265Z,37.85
2018-07-19T09:42:20.277Z,37.95
2018-07-19T09:43:20.291Z,37.48
2018-07-19T09:44:20.304Z,37.18
2018-07-19T09:45:20.317Z,38.32
2018-07-19T09:46:20.330Z,38.52
2018-07-19T09:47:20.348Z,38.24
2018-07-19T09:48:20.358Z,37.97
2018-07-19T09:49:20.370Z,37.02
2018-07-19T09:50:20.383Z,35.88
2018-07-19T09:51:20.396Z,35.67
2018-07-19T09:52:20.410Z,37.10
2018-07-19T09:53:20.423Z,36.92
2018-07-19T09:54:20.437Z,36.25
2018-07-19T09:55:20.452Z,36.06
2018-07-19T09:56:20.465Z,35.30
2018-07-19T09:57:20.477Z,35.59
2018-07-19T09:58:20.489Z,35.69
2018-07-19T09:59:20.524Z,35.80
2018-07-19T10:00:20.520Z,35.33
2018-07-19T10:01:20.533Z,34.09
2018-07-19T10:02:20.547Z,34.84
2018-07-19T10:03:20.560Z,34.86
2018-07-19T10:04:20.576Z,33.89
2018-07-19T10:05:20.591Z,33.89
2018-07-19T10:06:20.604Z,33.61
2018-07-19T10:07:20.617Z,33.05
2018-07-19T10:08:20.633Z,32.68
2018-07-19T10:09:20.649Z,32.86
2018-07-19T10:10:20.710Z,32.68
2018-07-19T10:11:20.676Z,32.84
2018-07-19T10:12:20.692Z,33.58
2018-07-19T10:13:20.707Z,35.12
2018-07-19T10:14:20.719Z,35.67
2018-07-19T10:15:20.760Z,36.16
2018-07-19T10:16:20.751Z,36.18
2018-07-19T10:17:20.811Z,36.25
2018-07-19T10:18:20.779Z,36.37
2018-07-19T10:19:20.794Z,35.43
2018-07-19T10:20:20.809Z,34.73
2018-07-19T10:21:20.825Z,34.36
2018-07-19T10:22:20.837Z,35.30
2018-07-19T10:23:20.852Z,35.39
2018-07-19T10:24:20.894Z,35.77
2018-07-19T10:25:20.883Z,36.33
2018-07-19T10:26:20.897Z,36.92
2018-07-19T10:27:20.917Z,36.37
2018-07-19T10:28:20.926Z,34.38
2018-07-19T10:29:20.943Z,33.59
2018-07-19T10:30:20.958Z,33.61
2018-07-19T10:31:20.970Z,32.68
2018-07-19T10:32:21.034Z,32.20
2018-07-19T10:33:20.999Z,31.80
2018-07-19T10:34:21.071Z,32.27
2018-07-19T10:35:21.030Z,33.09
2018-07-19T10:36:21.044Z,34.34
2018-07-19T10:37:21.058Z,35.39
2018-07-19T10:38:21.080Z,37.19
2018-07-19T10:39:21.090Z,38.44
2018-07-19T10:40:21.102Z,39.00
2018-07-19T10:41:21.119Z,39.00
2018-07-19T10:42:21.132Z,39.10
2018-07-19T10:43:21.146Z,38.64
2018-07-19T10:44:21.206Z,37.27
2018-07-19T10:45:21.174Z,36.33
2018-07-19T10:46:21.187Z,34.73
2018-07-19T10:47:21.203Z,34.81
2018-07-19T10:48:21.217Z,35.08
2018-07-19T10:49:21.230Z,36.33
2018-07-19T10:50:21.243Z,37.56
2018-07-19T10:51:21.257Z,37.18
2018-07-19T10:52:21.273Z,36.71
2018-07-19T10:53:21.286Z,36.72
2018-07-19T10:54:21.299Z,35.49
2018-07-19T10:55:21.313Z,35.96
2018-07-19T10:56:21.327Z,35.51
2018-07-19T10:57:21.387Z,35.41
2018-07-19T10:58:21.353Z,33.80
2018-07-19T10:59:21.366Z,33.67
2018-07-19T11:00:21.379Z,34.36
2018-07-19T11:01:21.392Z,35.10
2018-07-19T11:02:21.408Z,35.39
2018-07-19T11:03:21.420Z,36.04
2018-07-19T11:04:21.434Z,35.96
2018-07-19T11:05:21.447Z,35.14
2018-07-19T11:06:21.460Z,34.47
2018-07-19T11:07:21.473Z,33.61
2018-07-19T11:08:21.488Z,33.12
2018-07-19T11:09:21.521Z,33.20
2018-07-19T11:10:21.514Z,33.95
2018-07-19T11:11:21.527Z,35.30
2018-07-19T11:12:21.540Z,35.20
2018-07-19T11:13:21.552Z,35.47
2018-07-19T11:14:21.566Z,36.33
2018-07-19T11:15:21.580Z,37.00
2018-07-19T11:16:21.596Z,36.14
2018-07-19T11:17:21.609Z,35.61
2018-07-19T11:18:21.619Z,33.77
2018-07-19T11:19:21.632Z,35.10
2018-07-19T11:20:21.649Z,35.77
2018-07-19T11:21:21.661Z,35.96
2018-07-19T11:22:21.673Z,35.43
2018-07-19T11:23:21.688Z,33.51
2018-07-19T11:24:21.701Z,32.91
2018-07-19T11:25:21.712Z,33.41
2018-07-19T11:26:21.725Z,33.22
2018-07-19T11:27:21.737Z,33.69
2018-07-19T11:28:21.755Z,34.52
2018-07-19T11:29:21.764Z,36.51
2018-07-19T11:30:21.775Z,37.00
2018-07-19T11:31:21.789Z,36.51
2018-07-19T11:32:21.802Z,36.80
2018-07-19T11:33:21.816Z,36.53
2018-07-19T11:34:21.827Z,36.53
2018-07-19T11:35:21.909Z,36.82
2018-07-19T11:36:21.853Z,36.35
2018-07-19T11:37:21.868Z,36.84
2018-07-19T11:38:21.878Z,37.12
2018-07-19T11:39:21.891Z,36.40
2018-07-19T11:40:21.904Z,37.27
2018-07-19T11:41:21.917Z,37.37
2018-07-19T11:42:21.931Z,38.05
2018-07-19T11:43:21.941Z,38.32
2018-07-19T11:44:21.953Z,37.93
2018-07-19T11:45:21.966Z,37.93
2018-07-19T11:46:21.978Z,37.66
2018-07-19T11:47:21.989Z,38.15
2018-07-19T11:48:22.003Z,37.46
2018-07-19T11:49:22.016Z,37.46
2018-07-19T11:50:22.027Z,36.98
2018-07-19T11:51:22.038Z,37.95
2018-07-19T11:52:22.049Z,38.03
2018-07-19T11:53:22.062Z,37.76
2018-07-19T11:54:22.071Z,37.37
2018-07-19T11:55:22.086Z,37.66
2018-07-19T11:56:22.097Z,37.37
2018-07-19T11:57:22.108Z,37.54
2018-07-19T11:58:22.120Z,38.23
2018-07-19T11:59:22.131Z,38.15
2018-07-19T12:00:22.144Z,38.05
2018-07-19T12:01:22.157Z,38.05
2018-07-19T12:02:22.166Z,37.58
2018-07-19T12:03:22.178Z,36.71
2018-07-19T12:04:22.190Z,35.73
2018-07-19T12:05:22.201Z,35.57
2018-07-19T12:06:22.210Z,35.28
2018-07-19T12:07:22.223Z,35.57
2018-07-19T12:08:22.233Z,35.67
2018-07-19T12:09:22.246Z,35.46
2018-07-19T12:10:22.257Z,35.75
2018-07-19T12:11:22.269Z,36.06
2018-07-19T12:12:22.281Z,35.57
2018-07-19T12:13:22.293Z,35.38
2018-07-19T12:14:22.302Z,35.26
2018-07-19T12:15:22.317Z,35.67
2018-07-19T12:16:22.327Z,36.33
2018-07-19T12:17:22.338Z,36.04
2018-07-19T12:18:22.349Z,36.90
2018-07-19T12:19:22.360Z,36.92
2018-07-19T12:20:22.372Z,36.22
2018-07-19T12:21:22.383Z,36.53
2018-07-19T12:22:22.397Z,35.38
2018-07-19T12:23:22.405Z,35.38
2018-07-19T12:24:22.419Z,35.46
2018-07-19T12:25:22.427Z,36.71
2018-07-19T12:26:22.439Z,36.71
2018-07-19T12:27:22.450Z,37.00
2018-07-19T12:28:22.462Z,36.24
2018-07-19T12:29:22.474Z,35.67
2018-07-19T12:30:22.489Z,35.49
2018-07-19T12:31:22.556Z,34.91
2018-07-19T12:32:22.507Z,34.63
2018-07-19T12:33:22.520Z,33.85
2018-07-19T12:34:22.531Z,34.61
2018-07-19T12:35:22.542Z,34.71
2018-07-19T12:36:22.554Z,34.59
2018-07-19T12:37:22.564Z,35.28
2018-07-19T12:38:22.577Z,35.18
2018-07-19T12:39:22.586Z,35.18
2018-07-19T12:40:22.598Z,35.28
2018-07-19T12:41:22.609Z,35.38
2018-07-19T12:42:22.621Z,35.38
2018-07-19T12:43:22.632Z,35.46
2018-07-19T12:44:22.643Z,35.65
2018-07-19T12:45:22.656Z,35.36
2018-07-19T12:46:22.667Z,36.14
2018-07-19T12:47:22.678Z,35.65
2018-07-19T12:48:22.689Z,35.85
2018-07-19T12:49:22.702Z,36.02
2018-07-19T12:50:22.712Z,37.27
2018-07-19T12:51:22.725Z,36.80
2018-07-19T12:52:22.736Z,36.32